WetterOnline ( http://www.wetteronline.de )

Wetter aktuell Greifswald

Aktuelles Wetter: Greifswald (6m)

6-stündlich | Neueste Meldungen
Ortszeit Temperatur Wetter
Mo, 17.12. 13:00 -0.3° C bewölkt
Mo, 17.12. 7:00 -1.3° C bedeckt
Mo, 17.12. 1:00 -0.7° C bedeckt
So, 16.12. 19:00 -0.4° C bedeckt
So, 16.12. 13:00 0.1° C bedeckt
So, 16.12. 7:00 -0.6° C bewölkt
So, 16.12. 1:00 0.3° C bedeckt
Sa, 15.12. 19:00 -0.1° C leichter Schneefall
Ortszeit Temperatur Wetter
Mo, 17.12. 14:30 -0.0° C bewölkt
Mo, 17.12. 14:20 -0.0° C bedeckt
Mo, 17.12. 14:10 0.1° C bedeckt
Mo, 17.12. 14:00 -0.1° C bewölkt
Mo, 17.12. 13:50 -0.1° C bedeckt
Mo, 17.12. 13:40 -0.1° C bedeckt
Mo, 17.12. 13:30 -0.1° C bewölkt
Mo, 17.12. 13:00 -0.3° C bewölkt
Mo, 17.12. 12:30 -0.6° C bewölkt
Mo, 17.12. 12:00 -0.3° C leicht bewölkt
Mo, 17.12. 11:30 -0.8° C wolkenlos
Ortszeit Relative Feuchte Sichtweite
Mo, 17.12. 13:00 77% 6 km
Mo, 17.12. 7:00 81% 6 km
Mo, 17.12. 1:00 76% 9 km
So, 16.12. 19:00 74% 9 km
So, 16.12. 13:00 70% 12 km
So, 16.12. 7:00 78% 8 km
So, 16.12. 1:00 91% 5.0 km
Sa, 15.12. 19:00 90% 8 km
Ortszeit Relative Feuchte Sichtweite
Mo, 17.12. 14:30 78% 6 km
Mo, 17.12. 14:20 78% -
Mo, 17.12. 14:10 78% -
Mo, 17.12. 14:00 78% 6 km
Mo, 17.12. 13:50 78% -
Mo, 17.12. 13:40 79% -
Mo, 17.12. 13:30 79% 6 km
Mo, 17.12. 13:00 77% 6 km
Mo, 17.12. 12:30 79% 6 km
Mo, 17.12. 12:00 79% 7 km
Mo, 17.12. 11:30 80% 6 km
Ortszeit Niederschlagsmenge Niederschlagsart
Mo, 17.12. 13:00 0.0 l/m2 in 6 Std. -
Mo, 17.12. 7:00 0.0 l/m2 in 12 Std. -
Mo, 17.12. 1:00 0.0 l/m2 in 6 Std. -
So, 16.12. 19:00 0.0 l/m2 in 12 Std. -
So, 16.12. 13:00 0.0 l/m2 in 6 Std. -
So, 16.12. 7:00 0.1 l/m2 in 12 Std. -
So, 16.12. 1:00 0.1 l/m2 in 6 Std. Schnee
Sa, 15.12. 19:00 0.1 l/m2 in 12 Std. Schnee
Ortszeit Niederschlagsmenge Niederschlagsart
Mo, 17.12. 14:30 0.0 l/m2 in 1 Std. -
Mo, 17.12. 14:20 keine Meldung -
Mo, 17.12. 14:10 keine Meldung -
Mo, 17.12. 14:00 0.0 l/m2 in 1 Std. -
Mo, 17.12. 13:50 keine Meldung -
Mo, 17.12. 13:40 keine Meldung -
Mo, 17.12. 13:30 0.0 l/m2 in 1 Std. -
Mo, 17.12. 13:00 0.0 l/m2 in 1 Std. -
Mo, 17.12. 12:30 0.0 l/m2 in 1 Std. -
Mo, 17.12. 12:00 0.0 l/m2 in 1 Std. -
Mo, 17.12. 11:30 0.0 l/m2 in 1 Std. -
Ortszeit Stärke Spitze Richtung
km/h Bft. km/h Grad Sektor
Mo, 17.12. 13:00 7 2 11 130° SO
Mo, 17.12. 7:00 7 2 18 120° SO
Mo, 17.12. 1:00 7 2 22 150° SO
So, 16.12. 19:00 9 2 24 130° SO
So, 16.12. 13:00 11 2 33 130° SO
So, 16.12. 7:00 14 3 36 130° SO
So, 16.12. 1:00 11 2 20 110° O
Sa, 15.12. 19:00 2 1 13 120° SO
Ortszeit Stärke Spitze Richtung
km/h Bft. km/h Grad Sektor
Mo, 17.12. 14:30 6 1 11 120° SO
Mo, 17.12. 14:20 6 1 - 120° SO
Mo, 17.12. 14:10 7 2 - 100° O
Mo, 17.12. 14:00 6 1 11 100° O
Mo, 17.12. 13:50 6 1 - 100° O
Mo, 17.12. 13:40 7 2 - 90° O
Mo, 17.12. 13:30 7 2 11 120° SO
Mo, 17.12. 13:00 7 2 11 130° SO
Mo, 17.12. 12:30 7 2 11 130° SO
Mo, 17.12. 12:00 6 1 9 140° SO
Mo, 17.12. 11:30 4 1 11 150° SO
Ortszeit Untergrenze Bedeckung Gattung
total tief tief mittel hoch
Mo, 17.12. 13:00 1080 m 7/8 7/8 Sc - -
Mo, 17.12. 7:00 2100 m 8/8 8/8 Sc - -
Mo, 17.12. 1:00 960 m 8/8 8/8 Sc - -
So, 16.12. 19:00 660 m 8/8 8/8 Sc - -
So, 16.12. 13:00 990 m 8/8 8/8 Sc - -
So, 16.12. 7:00 570 m 7/8 7/8 Sc - -
So, 16.12. 1:00 1800 m 8/8 8/8 Sc - -
Sa, 15.12. 19:00 630 m 8/8 8/8 Sc - -
Ortszeit Bedeckungsgrad in Achtel und Wolkenuntergrenze
Mo, 17.12. 14:30 7(990m)
Mo, 17.12. 14:20 8(990m)
Mo, 17.12. 14:10 8(990m)
Mo, 17.12. 14:00 7(990m)
Mo, 17.12. 13:50 8(1050m)
Mo, 17.12. 13:40 8(1050m)
Mo, 17.12. 13:30 7(1080m)
Mo, 17.12. 13:00 7(1080m)
Mo, 17.12. 12:30 6(1080m) 3(9000m)
Mo, 17.12. 12:00 1(1200m) 6(9000m)
Mo, 17.12. 11:30 keine Wolken
Ortszeit Luftdruck NN (hPa) Tendenz (hPa in 3 Std.)
Mo, 17.12. 13:00 1021 + 0,3
Mo, 17.12. 7:00 1018 + 1,2
Mo, 17.12. 1:00 1017 + 0,5
So, 16.12. 19:00 1016 + 0,1
So, 16.12. 13:00 1017 - 2,0
So, 16.12. 7:00 1021 - 1,8
So, 16.12. 1:00 1024 - 2,2
Sa, 15.12. 19:00 1028 - 1,1
Ortszeit Luftdruck NN (hPa) Tendenz (hPa in 3 Std.)
Mo, 17.12. 14:30 1021 + 0,4
Mo, 17.12. 14:20 1021 keine Meldung
Mo, 17.12. 14:10 1021 keine Meldung
Mo, 17.12. 14:00 1021 + 0,4
Mo, 17.12. 13:50 1021 keine Meldung
Mo, 17.12. 13:40 1021 keine Meldung
Mo, 17.12. 13:30 1021 + 0,1
Mo, 17.12. 13:00 1021 + 0,3
Mo, 17.12. 12:30 1021 + 0,5
Mo, 17.12. 12:00 1021 + 0,9
Mo, 17.12. 11:30 1021 + 1,5
Ortszeit Schneehöhe (cm)
Mo, 17.12. 13:00 0
Mo, 17.12. 7:00 0
Mo, 17.12. 1:00 0
So, 16.12. 19:00 0
So, 16.12. 13:00 0
So, 16.12. 7:00 0
So, 16.12. 1:00 0
Sa, 15.12. 19:00 0
Ortszeit Schneehöhe (cm)
Mo, 17.12. 14:30 -
Mo, 17.12. 14:20 -
Mo, 17.12. 14:10 -
Mo, 17.12. 14:00 -
Mo, 17.12. 13:50 -
Mo, 17.12. 13:40 -
Mo, 17.12. 13:30 -
Mo, 17.12. 13:00 0
Mo, 17.12. 12:30 -
Mo, 17.12. 12:00 -
Mo, 17.12. 11:30 -
Link zu dieser Seite / Seite empfehlen

Das Wetter in ...